createdAt,value
2018-06-10T00:00:08.311Z,20.97
2018-06-10T00:03:10.328Z,21.83
2018-06-10T00:06:15.507Z,23.40
2018-06-10T00:09:17.571Z,22.30
2018-06-10T00:12:20.343Z,23.00
2018-06-10T00:15:22.309Z,23.97
2018-06-10T00:18:24.385Z,21.63
2018-06-10T00:21:26.437Z,26.73
2018-06-10T00:24:28.407Z,23.60
2018-06-10T00:27:31.043Z,24.83
2018-06-10T00:30:33.095Z,21.30
2018-06-10T00:33:35.103Z,20.30
2018-06-10T00:36:37.210Z,20.70
2018-06-10T00:39:39.269Z,23.53
2018-06-10T00:42:41.223Z,22.90
2018-06-10T00:45:43.334Z,22.50
2018-06-10T00:48:45.374Z,20.07
2018-06-10T00:51:47.425Z,23.27
2018-06-10T00:54:49.503Z,23.17
2018-06-10T00:57:51.575Z,19.47
2018-06-10T01:00:53.532Z,21.50
2018-06-10T01:03:55.647Z,20.23
2018-06-10T01:06:57.704Z,21.20
2018-06-10T01:10:00.327Z,20.07
2018-06-10T01:13:03.471Z,19.87
2018-06-10T01:16:05.522Z,17.80
2018-06-10T01:19:07.578Z,22.20
2018-06-10T01:22:09.689Z,17.73
2018-06-10T01:25:11.722Z,17.20
2018-06-10T01:28:13.789Z,19.50
2018-06-10T01:31:15.790Z,17.60
2018-06-10T01:34:17.826Z,19.00
2018-06-10T01:37:20.547Z,16.63
2018-06-10T01:40:22.590Z,18.53
2018-06-10T01:43:24.522Z,18.87
2018-06-10T01:46:26.529Z,21.17
2018-06-10T01:49:28.575Z,17.70
2018-06-10T01:52:30.640Z,19.03
2018-06-10T01:55:32.710Z,19.47
2018-06-10T01:58:35.831Z,18.17
2018-06-10T02:01:37.860Z,16.67
2018-06-10T02:04:39.851Z,18.40
2018-06-10T02:07:41.925Z,18.23
2018-06-10T02:10:43.990Z,16.30
2018-06-10T02:13:46.103Z,16.87
2018-06-10T02:16:48.224Z,16.40
2018-06-10T02:19:51.008Z,21.00
2018-06-10T02:22:52.963Z,16.77
2018-06-10T02:25:55.066Z,16.53
2018-06-10T02:28:57.110Z,17.33
2018-06-10T02:31:59.192Z,17.30
2018-06-10T02:35:01.238Z,17.57
2018-06-10T02:38:03.361Z,17.20
2018-06-10T02:41:05.746Z,16.93
2018-06-10T02:44:08.792Z,17.57
2018-06-10T02:47:10.863Z,21.00
2018-06-10T02:50:12.926Z,18.83
2018-06-10T02:53:14.888Z,19.73
2018-06-10T02:56:17.986Z,19.07
2018-06-10T02:59:21.176Z,18.53
2018-06-10T03:02:23.281Z,21.37
2018-06-10T03:05:25.337Z,19.50
2018-06-10T03:08:27.422Z,17.77
2018-06-10T03:11:29.543Z,16.30
2018-06-10T03:14:31.623Z,18.07
2018-06-10T03:17:33.567Z,17.90
2018-06-10T03:20:35.650Z,18.23
2018-06-10T03:23:37.731Z,18.57
2018-06-10T03:26:39.863Z,17.90
2018-06-10T03:29:41.881Z,17.90
2018-06-10T03:32:43.932Z,18.17
2018-06-10T03:35:46.007Z,19.20
2018-06-10T03:38:47.949Z,20.13
2018-06-10T03:41:51.076Z,19.70
2018-06-10T03:44:53.123Z,17.70
2018-06-10T03:47:55.215Z,20.93
2018-06-10T03:50:57.171Z,17.57
2018-06-10T03:53:59.985Z,19.17
2018-06-10T03:57:02.030Z,21.17
2018-06-10T04:00:04.138Z,19.43
2018-06-10T04:03:06.191Z,19.27
2018-06-10T04:06:09.271Z,18.60
2018-06-10T04:09:11.357Z,17.93
2018-06-10T04:12:13.405Z,16.60
2018-06-10T04:15:15.434Z,17.53
2018-06-10T04:18:17.532Z,20.10
2018-06-10T04:21:19.443Z,17.83
2018-06-10T04:24:21.459Z,18.97
2018-06-10T04:27:23.554Z,17.70
2018-06-10T04:30:25.607Z,17.60
2018-06-10T04:33:27.682Z,22.63
2018-06-10T04:36:30.667Z,20.40
2018-06-10T04:39:32.739Z,19.23
2018-06-10T04:42:34.823Z,18.07
2018-06-10T04:45:36.863Z,20.10
2018-06-10T04:48:38.936Z,22.03
2018-06-10T04:51:41.027Z,21.23
2018-06-10T04:54:43.282Z,18.97
2018-06-10T04:57:46.403Z,18.67
2018-06-10T05:00:48.485Z,18.30
2018-06-10T05:03:50.499Z,19.53
2018-06-10T05:06:52.479Z,20.53
2018-06-10T05:09:54.543Z,21.07
2018-06-10T05:12:57.569Z,17.40
2018-06-10T05:16:00.361Z,18.30
2018-06-10T05:19:03.372Z,19.33
2018-06-10T05:22:05.583Z,19.23
2018-06-10T05:25:08.675Z,23.63
2018-06-10T05:28:10.784Z,18.23
2018-06-10T05:31:13.872Z,18.50
2018-06-10T05:34:15.932Z,17.10
2018-06-10T05:37:18.051Z,18.63
2018-06-10T05:40:20.179Z,22.27
2018-06-10T05:43:22.275Z,17.33
2018-06-10T05:46:24.279Z,17.77
2018-06-10T05:49:27.494Z,19.67
2018-06-10T05:52:29.527Z,19.57
2018-06-10T05:55:31.616Z,17.70
2018-06-10T05:58:33.853Z,18.80
2018-06-10T06:01:35.824Z,17.87
2018-06-10T06:04:38.430Z,19.57
2018-06-10T06:07:40.490Z,20.10
2018-06-10T06:10:42.468Z,19.57
2018-06-10T06:13:44.558Z,20.23
2018-06-10T06:16:46.661Z,22.53
2018-06-10T06:19:48.675Z,18.70
2018-06-10T06:22:51.687Z,17.10
2018-06-10T06:25:53.751Z,19.60
2018-06-10T06:28:55.819Z,21.93
2018-06-10T06:31:57.891Z,19.13
2018-06-10T06:34:59.947Z,17.93
2018-06-10T06:38:02.074Z,19.03
2018-06-10T06:41:04.095Z,22.20
2018-06-10T06:44:06.360Z,18.40
2018-06-10T06:47:09.503Z,20.07
2018-06-10T06:50:11.521Z,18.87
2018-06-10T06:53:14.096Z,19.10
2018-06-10T06:56:16.199Z,19.57
2018-06-10T06:59:18.228Z,22.87
2018-06-10T07:02:20.312Z,19.47
2018-06-10T07:05:23.763Z,18.80
2018-06-10T07:08:26.140Z,23.40
2018-06-10T07:11:30.206Z,25.53
2018-06-10T07:14:32.690Z,22.73
2018-06-10T07:17:36.774Z,23.50
2018-06-10T07:20:38.880Z,20.93
2018-06-10T07:23:40.970Z,21.57
2018-06-10T07:26:42.911Z,23.87
2018-06-10T07:29:44.948Z,23.47
2018-06-10T07:32:47.027Z,22.37
2018-06-10T07:35:49.007Z,21.07
2018-06-10T07:38:52.008Z,20.52
2018-06-10T07:41:54.064Z,21.00
2018-06-10T07:44:56.135Z,21.52
2018-06-10T07:47:58.194Z,22.37
2018-06-10T07:51:00.287Z,21.45
2018-06-10T07:54:02.511Z,21.47
2018-06-10T07:57:04.629Z,19.77
2018-06-10T08:00:07.512Z,22.70
2018-06-10T08:03:09.522Z,20.60
2018-06-10T08:06:11.676Z,22.97
2018-06-10T08:09:13.823Z,22.37
2018-06-10T08:12:15.911Z,23.13
2018-06-10T08:15:18.092Z,24.43
2018-06-10T08:18:20.110Z,24.00
2018-06-10T08:21:22.800Z,23.40
2018-06-10T08:24:24.880Z,25.87
2018-06-10T08:27:26.951Z,24.23
2018-06-10T08:30:29.099Z,20.97
2018-06-10T08:33:31.233Z,23.33
2018-06-10T08:36:33.275Z,26.20
2018-06-10T08:39:35.753Z,24.17
2018-06-10T08:42:37.778Z,27.63
2018-06-10T08:45:39.839Z,26.83
2018-06-10T08:48:41.864Z,25.60
2018-06-10T08:51:43.903Z,22.90
2018-06-10T08:54:45.819Z,25.27
2018-06-10T08:57:47.843Z,25.95
2018-06-10T09:00:49.870Z,25.00
2018-06-10T09:03:53.030Z,29.97
2018-06-10T09:06:54.955Z,23.87
2018-06-10T09:09:57.102Z,26.90
2018-06-10T09:12:59.184Z,28.15
2018-06-10T09:16:01.379Z,29.00
2018-06-10T09:19:03.520Z,27.62
2018-06-10T09:22:05.620Z,28.83
2018-06-10T09:25:07.760Z,26.83
2018-06-10T09:28:10.759Z,28.50
2018-06-10T09:31:12.787Z,28.67
2018-06-10T09:34:14.815Z,31.23
2018-06-10T09:37:16.888Z,28.53
2018-06-10T09:40:18.931Z,29.93
2018-06-10T09:43:22.983Z,29.53
2018-06-10T09:46:25.021Z,30.53
2018-06-10T09:49:27.103Z,32.30
2018-06-10T09:52:29.039Z,30.40
2018-06-10T09:55:31.289Z,28.00
2018-06-10T09:58:33.204Z,33.00
2018-06-10T10:01:35.123Z,28.43
2018-06-10T10:04:37.262Z,32.57
2018-06-10T10:07:39.282Z,26.63
2018-06-10T10:10:41.367Z,27.23
2018-06-10T10:13:45.679Z,29.03
2018-06-10T10:16:47.832Z,27.70
2018-06-10T10:19:49.851Z,30.40
2018-06-10T10:22:52.552Z,25.07
2018-06-10T10:25:54.559Z,24.77
2018-06-10T10:28:56.567Z,23.73
2018-06-10T10:31:58.734Z,24.37
2018-06-10T10:35:00.787Z,29.03
2018-06-10T10:38:02.907Z,23.33
2018-06-10T10:41:05.111Z,29.20
2018-06-10T10:44:07.203Z,23.63
2018-06-10T10:47:09.268Z,21.47
2018-06-10T10:50:11.331Z,24.00
2018-06-10T10:53:13.258Z,23.70
2018-06-10T10:56:15.263Z,23.55
2018-06-10T10:59:17.441Z,22.53
2018-06-10T11:02:20.093Z,21.47
2018-06-10T11:05:22.082Z,21.73
2018-06-10T11:08:24.075Z,21.70
2018-06-10T11:11:26.195Z,19.87
2018-06-10T11:14:29.228Z,20.30
2018-06-10T11:17:31.495Z,17.30
2018-06-10T11:20:33.578Z,16.73
2018-06-10T11:23:35.644Z,16.00
2018-06-10T11:26:38.519Z,17.33
2018-06-10T11:29:40.611Z,16.63
2018-06-10T11:32:42.713Z,15.23
2018-06-10T11:35:44.764Z,18.53
2018-06-10T11:38:47.327Z,13.43
2018-06-10T11:41:49.405Z,13.90
2018-06-10T11:44:51.451Z,13.77
2018-06-10T11:47:53.530Z,14.60
2018-06-10T11:50:55.615Z,15.13
2018-06-10T11:53:57.654Z,12.87
2018-06-10T11:56:59.628Z,13.23
2018-06-10T12:00:01.731Z,13.67
2018-06-10T12:03:03.798Z,13.03
2018-06-10T12:06:05.975Z,12.90
2018-06-10T12:09:09.121Z,12.27
2018-06-10T12:12:11.189Z,12.20
2018-06-10T12:15:14.176Z,13.70
2018-06-10T12:18:16.257Z,13.37
2018-06-10T12:21:18.357Z,13.17
2018-06-10T12:24:20.486Z,11.80
2018-06-10T12:27:22.587Z,13.37
2018-06-10T12:30:24.622Z,13.43
2018-06-10T12:33:26.715Z,14.00
2018-06-10T12:36:28.719Z,14.93
2018-06-10T12:39:30.718Z,14.50
2018-06-10T12:42:32.865Z,12.87
2018-06-10T12:45:34.810Z,15.47
2018-06-10T12:48:36.831Z,12.47
2018-06-10T12:51:38.926Z,12.27
2018-06-10T12:54:40.983Z,11.00
2018-06-10T12:57:43.054Z,12.40
2018-06-10T13:00:45.131Z,11.07
2018-06-10T13:03:47.223Z,9.13
2018-06-10T13:07:08.257Z,9.83
2018-06-10T13:10:10.671Z,9.03
2018-06-10T13:13:12.770Z,9.03
2018-06-10T13:16:14.812Z,9.10
2018-06-10T13:19:16.881Z,9.13
2018-06-10T13:22:19.283Z,7.50
2018-06-10T13:25:21.298Z,10.13
2018-06-10T13:28:24.421Z,9.27
2018-06-10T13:31:26.480Z,9.60
2018-06-10T13:34:29.484Z,11.13
2018-06-10T13:37:31.424Z,10.07
2018-06-10T13:40:33.551Z,10.00
2018-06-10T13:43:35.463Z,8.93
2018-06-10T13:46:38.374Z,9.37
2018-06-10T13:49:40.472Z,9.30
2018-06-10T13:52:42.495Z,11.60
2018-06-10T13:55:44.567Z,9.40
2018-06-10T13:58:46.684Z,13.77
2018-06-10T14:01:48.679Z,8.90
2018-06-10T14:04:50.777Z,9.07
2018-06-10T14:07:52.870Z,11.60
2018-06-10T14:10:55.095Z,8.97
2018-06-10T14:13:57.170Z,10.90
2018-06-10T14:16:59.315Z,11.03
2018-06-10T14:20:01.408Z,13.13
2018-06-10T14:23:03.507Z,10.03
2018-06-10T14:26:06.822Z,10.30
2018-06-10T14:29:08.972Z,11.50
2018-06-10T14:32:12.068Z,9.83
2018-06-10T14:35:13.983Z,9.60
2018-06-10T14:38:16.086Z,11.67
2018-06-10T14:41:18.181Z,12.00
2018-06-10T14:44:20.270Z,8.80
2018-06-10T14:47:22.375Z,9.50
2018-06-10T14:50:24.646Z,8.50
2018-06-10T14:53:26.626Z,8.50
2018-06-10T14:56:29.816Z,7.40
2018-06-10T14:59:31.902Z,7.17
2018-06-10T15:02:33.998Z,8.00
2018-06-10T15:05:35.968Z,7.93
2018-06-10T15:08:37.958Z,7.13
2018-06-10T15:11:40.001Z,7.87
2018-06-10T15:14:42.023Z,7.90
2018-06-10T15:17:44.095Z,8.33
2018-06-10T15:20:46.176Z,8.17
2018-06-10T15:23:48.265Z,8.90
2018-06-10T15:26:50.324Z,8.17
2018-06-10T15:29:52.379Z,8.77
2018-06-10T15:32:54.338Z,7.90
2018-06-10T15:35:57.475Z,9.07
2018-06-10T15:38:59.555Z,8.47
2018-06-10T15:42:01.731Z,8.67
2018-06-10T15:45:03.888Z,10.27
2018-06-10T15:48:05.915Z,8.60
2018-06-10T15:51:09.044Z,8.90
2018-06-10T15:54:11.092Z,8.87
2018-06-10T15:57:13.139Z,7.27
2018-06-10T16:00:15.111Z,9.90
2018-06-10T16:03:17.205Z,8.90
2018-06-10T16:06:19.130Z,8.47
2018-06-10T16:09:21.218Z,8.33
2018-06-10T16:12:23.295Z,8.80
2018-06-10T16:15:25.364Z,10.50
2018-06-10T16:18:27.453Z,9.17
2018-06-10T16:21:29.486Z,8.80
2018-06-10T16:24:31.551Z,9.43
2018-06-10T16:27:34.534Z,9.33
2018-06-10T16:30:36.628Z,9.10
2018-06-10T16:33:39.805Z,8.47
2018-06-10T16:36:41.887Z,9.10
2018-06-10T16:39:43.964Z,8.53
2018-06-10T16:42:46.137Z,9.20
2018-06-10T16:45:49.198Z,9.17
2018-06-10T16:48:51.167Z,9.07
2018-06-10T16:51:53.259Z,8.40
2018-06-10T16:54:55.363Z,9.83
2018-06-10T16:57:57.473Z,9.90
2018-06-10T17:00:59.406Z,9.10
2018-06-10T17:04:01.461Z,10.47
2018-06-10T17:07:03.831Z,8.87
2018-06-10T17:10:05.924Z,8.70
2018-06-10T17:13:09.003Z,8.83
2018-06-10T17:16:11.068Z,9.23
2018-06-10T17:19:13.113Z,8.87
2018-06-10T17:22:15.998Z,9.23
2018-06-10T17:25:18.169Z,8.50
2018-06-10T17:28:20.374Z,8.67
2018-06-10T17:31:22.382Z,8.97
2018-06-10T17:34:24.434Z,10.00
2018-06-10T17:37:26.531Z,9.00
2018-06-10T17:40:28.843Z,9.40
2018-06-10T17:43:30.970Z,9.63
2018-06-10T17:46:32.891Z,8.93
2018-06-10T17:49:35.100Z,8.37
2018-06-10T17:52:37.311Z,9.20
2018-06-10T17:55:39.414Z,9.50
2018-06-10T17:58:41.414Z,9.33
2018-06-10T18:01:43.410Z,9.00
2018-06-10T18:04:46.682Z,9.23
2018-06-10T18:07:48.802Z,9.97
2018-06-10T18:10:54.608Z,10.23
2018-06-10T18:13:56.659Z,9.10
2018-06-10T18:16:58.721Z,10.53
2018-06-10T18:20:00.811Z,13.37
2018-06-10T18:23:02.911Z,11.67
2018-06-10T18:26:04.983Z,11.10
2018-06-10T18:29:07.013Z,11.40
2018-06-10T18:32:09.163Z,10.03
2018-06-10T18:35:11.246Z,10.40
2018-06-10T18:38:13.346Z,10.47
2018-06-10T18:41:16.601Z,10.10
2018-06-10T18:44:18.712Z,10.23
2018-06-10T18:47:20.835Z,9.27
2018-06-10T18:50:22.922Z,8.10
2018-06-10T18:53:26.006Z,9.03
2018-06-10T18:56:28.139Z,9.63
2018-06-10T18:59:30.135Z,9.20
2018-06-10T19:02:32.233Z,9.20
2018-06-10T19:05:34.291Z,8.40
2018-06-10T19:08:36.550Z,8.87
2018-06-10T19:11:38.668Z,8.23
2018-06-10T19:14:40.595Z,8.20
2018-06-10T19:17:42.674Z,7.70
2018-06-10T19:20:44.772Z,7.00
2018-06-10T19:23:46.917Z,8.40
2018-06-10T19:26:48.979Z,9.57
2018-06-10T19:29:51.073Z,7.83
2018-06-10T19:32:53.126Z,8.37
2018-06-10T19:35:55.217Z,8.50
2018-06-10T19:38:57.239Z,7.57
2018-06-10T19:41:59.211Z,7.17
2018-06-10T19:45:01.375Z,6.77
2018-06-10T19:48:03.472Z,5.67
2018-06-10T19:51:05.555Z,6.57
2018-06-10T19:54:07.591Z,5.90
2018-06-10T19:57:09.671Z,7.90
2018-06-10T20:00:11.730Z,6.87
2018-06-10T20:03:13.810Z,8.30
2018-06-10T20:06:17.176Z,9.50
2018-06-10T20:09:21.243Z,8.17
2018-06-10T20:12:23.261Z,8.00
2018-06-10T20:15:25.353Z,8.73
2018-06-10T20:18:27.398Z,8.83
2018-06-10T20:21:29.331Z,7.93
2018-06-10T20:24:35.283Z,8.07
2018-06-10T20:27:37.316Z,7.57
2018-06-10T20:30:39.450Z,7.47
2018-06-10T20:33:41.474Z,6.73
2018-06-10T20:36:43.533Z,6.97
2018-06-10T20:39:46.211Z,5.07
2018-06-10T20:42:48.278Z,5.20
2018-06-10T20:45:50.242Z,8.30
2018-06-10T20:48:52.207Z,5.43
2018-06-10T20:51:54.312Z,5.50
2018-06-10T20:54:56.477Z,5.40
2018-06-10T20:57:59.573Z,6.70
2018-06-10T21:01:01.626Z,6.20
2018-06-10T21:04:03.700Z,5.43
2018-06-10T21:07:05.749Z,6.03
2018-06-10T21:10:07.852Z,6.13
2018-06-10T21:13:09.873Z,5.80
2018-06-10T21:16:11.968Z,7.87
2018-06-10T21:19:14.011Z,6.57
2018-06-10T21:22:16.830Z,5.67
2018-06-10T21:25:18.855Z,6.63
2018-06-10T21:28:20.806Z,7.13
2018-06-10T21:31:22.795Z,5.10
2018-06-10T21:34:24.879Z,5.20
2018-06-10T21:37:26.931Z,8.57
2018-06-10T21:40:28.989Z,5.80
2018-06-10T21:43:30.966Z,6.90
2018-06-10T21:46:33.047Z,9.30
2018-06-10T21:49:35.099Z,11.67
2018-06-10T21:52:37.199Z,10.80
2018-06-10T21:55:39.259Z,9.20
2018-06-10T21:58:41.286Z,11.57
2018-06-10T22:01:43.319Z,9.10
2018-06-10T22:04:45.964Z,9.83
2018-06-10T22:07:48.060Z,8.93
2018-06-10T22:10:50.202Z,8.37
2018-06-10T22:13:52.267Z,9.00
2018-06-10T22:16:54.369Z,9.03
2018-06-10T22:19:59.421Z,8.93
2018-06-10T22:26:30.694Z,10.03
2018-06-10T22:29:37.070Z,11.00
2018-06-10T22:32:39.147Z,13.63
2018-06-10T22:35:41.234Z,9.77
2018-06-10T22:38:43.287Z,8.70
2018-06-10T22:41:45.569Z,8.30
2018-06-10T22:44:47.624Z,8.47
2018-06-10T22:47:49.711Z,8.77
2018-06-10T22:50:52.907Z,8.37
2018-06-10T22:54:36.520Z,8.50
2018-06-10T22:57:38.769Z,9.93
2018-06-10T23:00:40.781Z,8.33
2018-06-10T23:03:42.883Z,7.73
2018-06-10T23:06:44.903Z,9.03
2018-06-10T23:09:47.017Z,9.47
2018-06-10T23:12:49.154Z,8.50
2018-06-10T23:15:51.224Z,7.43
2018-06-10T23:18:53.944Z,7.90
2018-06-10T23:21:55.868Z,8.73
2018-06-10T23:24:57.975Z,8.03
2018-06-10T23:28:00.015Z,9.00
2018-06-10T23:31:01.964Z,7.40
2018-06-10T23:34:04.052Z,7.10
2018-06-10T23:37:06.127Z,7.17
2018-06-10T23:40:08.247Z,8.47
2018-06-10T23:43:10.350Z,8.27
2018-06-10T23:46:12.451Z,7.30
2018-06-10T23:49:14.979Z,6.80
2018-06-10T23:52:17.059Z,9.57
2018-06-10T23:55:18.967Z,7.63
2018-06-10T23:58:21.140Z,7.13
